AirNav   Air Wisconsin pilot careers
 
 1421 users online  

N18 Tinak Airport
Arno Atoll, Marshall Islands


FAA INFORMATION EFFECTIVE 09 NOVEMBER 2017

Location

FAA Identifier: N18
Lat/Long: 07-08-00.0000N / 171-55-00.0000E
07-08.000000N / 171-55.000000E
7.1333333 / 171.9166667
(estimated)
Elevation: 4 ft. / 1 m (estimated)
Variation: 10E (1985)
Time zone: UTC +12 (year round; does not observe DST)

Airport Operations

Airport use: Open to the public
Activation date: 06/1983
Control tower: no
ARTCC: HONOLULU CONTROL FACILITY CENTER
FSS: HONOLULU FLIGHT SERVICE STATION
NOTAMs facility: HNL (NOTAM-D service available)
Attendance: ON CALL
Segmented circle: no

Airport Communications

CTAF: 122.9

Nearby radio navigation aids

NDB name  Hdg/Dist  Freq  Var  ID
MAJURO074/38.831610EMAJ -- .- .---

Airport Services

Runway Information

Runway 5/23

Dimensions: 2850 x 45 ft. / 869 x 14 m
Surface: gravel
CORAL.
RUNWAY 5  RUNWAY 23
Traffic pattern: leftleft

Airport Ownership and Management from official FAA records

Ownership: Publicly-owned
Owner: TRUST TERR OF PACIFIC IS
TRUST TERR OF PACIFIC IS
SAIPAN MARIANA IS 96950
Phone SAIPAN 9731
Manager: YWAO ELANZO
DEPT OF TRANS MARSHALLS DIST
TRUST TERR OF PACIFIC IS

Instrument Procedures

There are no published instrument procedures at N18.

Some nearby airports with instrument procedures:

PKMJ - Marshall Islands International Airport (39 nm W)
 
Loc | Ops | Rwys | IFR | FBO | Links
Com | Nav | Svcs | Stats | Notes


 
Aerial photo
No photo
 
Airport distance calculator
Flying to Tinak Airport? Find the distance to fly.

From to N18

Sunrise and sunset
Times for 22-Nov-2017
 Local
(UTC+12)
 Zulu
(UTC)
Morning civil twilight06:0418:04
Sunrise06:2618:26
Sunset18:1006:10
Evening civil twilight18:3306:33

Current date and time
Zulu (UTC)  21-Nov-2017 16:01:44
Local (UTC+12)  22-Nov-2017 04:01:44
 
METAR
PKMJ 
39nm W 
210256Z 02009KT 15SM FEW015 SCT050 SCT120 BKN300 31/26 A2970 RMK LAST
PKMR 
43nm W 
211551Z 08009KT 15SM FEW015 SCT050 BKN120 OVC300 27/24 A2970 RMK SHRAB14E41 SLP058 T02740243
TAF
PKMJ 
39nm W 
211130Z 2112/2212 06008KT P6SM VCSH FEW015 SCT050 SCT120
NOTAMs
Click for the latest NOTAMs
NOTAMs are issued by the DoD/FAA and will open in a separate window not controlled by AirNav.

 

 
 

Would you like to see your business listed on this page?

 If your business provides an interesting product or service to pilots, flight crews, aircraft, or users of the Tinak Airport, you should consider listing it here.  To start the listing process, click on the button below
 
Add a business
 

Other Pages about Tinak Airport

Update a link
 
Copyright © AirNav, LLC. All rights reserved. Privacy Policy  Contact